Greystones, Ireland
Current Conditions -  °F | °C
As of 10:00 PM on Thursday 18 Dec 2014 (Local Time) from EIME Reporting Station
Scattered Clouds Scattered Clouds  
Wind Chill: 39°   Ceiling: Unl
Heat Index: 46°   Visibility: 6mi
Dew Point: 45°   Wind: 17mph
Humidity: 93%   Direction: 250°WSW
Pressure: 29.68"   Gusts: NA
Location:  53.14°N, 6.07°W
Report Text: EIME 182200Z 25015KT 9999 FEW012 SCT013 08/07 Q1005
Loading
Personal Weather Stations






























Interactive Weather Map New forecast layout! Learn more

10-Day Weather Forecast

Advertisements
Track Severe Weather on mobile